Atlantic City International Airport
KACY : now visible

Airfield :











YOU CAN JOIN US ON...

 
LOGIN :

Register | Disclaimer

   EN    FR    IT 

 









Legend :    VFR   Marginal VFR   IFR   Intensive IFR   Very Intensive IFR
Visi :
Ceiling :
>= 8 km
>= 3000ft
5 to 8 km
1000 to 3000 ft
1500m to 5 km
500 to 1000 ft
800 to 1500m
200 to 500 ft
< 800m
< 200 ft
Symbols :   Thunderstorms  Fog  Heavy snow  Heavy precipitations  Wind > 20 kt






- Airport Elevation : 75 ft
- IATA code : ACY


KACY - Atlantic City International

CURRENT METAR :
  • 080654Z 20003KT 9SM BKN080 OVC090 06/03 A3011 RMK AO2 RAB29E40 SLP195 P0000 T00560028

EXPIRED METARs :
  • 080554Z 19003KT 10SM BKN085 OVC110 06/03 A3012 RMK AO2 SLP201 T00560033 10061 20039 58017
  • 080454Z 21003KT 10SM OVC070 06/03 A3015 RMK AO2 SLP208 T00560028 400671050
  • 080354Z 19005KT 10SM BKN100 06/02 A3016 RMK AO2 SLP212 T00560022

TAF KACY
Valid from the 08 at 06:00 until the 09 at 06:00 UTC


080533Z 0806/0906 21005KT P6SM OVC060
TEMPO 0806/0808 6SM -RA BR
FM080800 26005KT P6SM OVC050
FM081300 32007KT P6SM SCT250
FM081600 32011G16KT P6SM FEW250
FM082200 30008KT P6SM FEW250
KZDC FIR / North America



MET'MAP, your aeronautical weather chart ! - Copyright ORBIFLY December 2007 - Disclaimer

ORBIFLY MET'MAP TEAM :

Programming & Development : Alexandra Zaïnal
Original concept : Baudouin d'Aumeries
Technical & hardware support : Manuel Goepfert
Assistance : Marc-Olivier Méhu




SOURCES & CREDITS :

   NOAA       Earth
Advisory